createdAt,value
2019-02-11T00:01:35.994Z,5.40
2019-02-11T00:04:04.719Z,5.40
2019-02-11T00:06:33.401Z,5.50
2019-02-11T00:09:02.241Z,5.50
2019-02-11T00:11:30.957Z,5.50
2019-02-11T00:13:59.642Z,5.50
2019-02-11T00:16:28.342Z,5.50
2019-02-11T00:18:57.066Z,5.50
2019-02-11T00:21:25.761Z,5.50
2019-02-11T00:23:55.482Z,5.50
2019-02-11T00:26:24.230Z,5.50
2019-02-11T00:28:52.926Z,5.60
2019-02-11T00:31:22.623Z,5.50
2019-02-11T00:33:51.394Z,5.50
2019-02-11T00:36:20.083Z,5.50
2019-02-11T00:38:48.881Z,5.50
2019-02-11T00:41:17.609Z,5.50
2019-02-11T00:43:46.314Z,5.50
2019-02-11T00:46:15.011Z,5.50
2019-02-11T00:48:43.761Z,5.50
2019-02-11T00:51:12.477Z,5.50
2019-02-11T00:53:41.214Z,5.50
2019-02-11T00:56:09.940Z,5.50
2019-02-11T00:58:38.635Z,5.50
2019-02-11T01:01:07.356Z,5.50
2019-02-11T01:03:36.074Z,5.50
2019-02-11T01:06:04.782Z,5.50
2019-02-11T01:08:33.914Z,5.50
2019-02-11T01:11:02.728Z,5.50
2019-02-11T01:13:31.441Z,5.50
2019-02-11T01:16:00.153Z,5.50
2019-02-11T01:18:28.878Z,5.50
2019-02-11T01:20:57.570Z,5.50
2019-02-11T01:23:26.282Z,5.40
2019-02-11T01:25:55.014Z,5.40
2019-02-11T01:28:23.722Z,5.40
2019-02-11T01:30:52.421Z,5.40
2019-02-11T01:33:21.163Z,5.40
2019-02-11T01:35:49.862Z,5.40
2019-02-11T01:38:18.554Z,5.40
2019-02-11T01:40:47.274Z,5.40
2019-02-11T01:43:15.973Z,5.40
2019-02-11T01:45:44.673Z,5.40
2019-02-11T01:48:13.386Z,5.40
2019-02-11T01:50:42.950Z,5.40
2019-02-11T01:53:11.675Z,5.30
2019-02-11T01:55:40.385Z,5.30
2019-02-11T01:58:09.141Z,5.40
2019-02-11T02:00:37.838Z,5.30
2019-02-11T02:03:06.550Z,5.30
2019-02-11T02:05:35.241Z,5.30
2019-02-11T02:08:03.965Z,5.30
2019-02-11T02:10:32.765Z,5.30
2019-02-11T02:13:01.455Z,5.40
2019-02-11T02:15:30.147Z,5.40
2019-02-11T02:17:58.885Z,5.40
2019-02-11T02:20:27.797Z,5.40
2019-02-11T02:22:56.511Z,5.40
2019-02-11T02:25:25.210Z,5.40
2019-02-11T02:27:53.926Z,5.40
2019-02-11T02:30:22.626Z,5.50
2019-02-11T02:32:51.326Z,5.50
2019-02-11T02:35:21.406Z,5.50
2019-02-11T02:37:50.099Z,5.60
2019-02-11T02:40:18.801Z,5.60
2019-02-11T02:42:47.601Z,5.60
2019-02-11T02:45:16.327Z,5.60
2019-02-11T02:47:45.014Z,5.60
2019-02-11T02:50:13.736Z,5.60
2019-02-11T02:52:43.374Z,5.60
2019-02-11T02:55:12.070Z,5.60
2019-02-11T02:57:40.798Z,5.60
2019-02-11T03:00:09.916Z,5.60
2019-02-11T03:02:38.652Z,5.60
2019-02-11T03:05:07.938Z,5.50
2019-02-11T03:07:36.622Z,5.50
2019-02-11T03:10:05.981Z,5.50
2019-02-11T03:12:34.689Z,5.50
2019-02-11T03:15:03.407Z,5.50
2019-02-11T03:17:32.159Z,5.50
2019-02-11T03:20:00.882Z,5.50
2019-02-11T03:22:29.563Z,5.40
2019-02-11T03:24:58.253Z,5.40
2019-02-11T03:27:26.958Z,5.40
2019-02-11T03:29:55.667Z,5.40
2019-02-11T03:32:24.423Z,5.30
2019-02-11T03:34:53.135Z,5.30
2019-02-11T03:37:21.833Z,5.30
2019-02-11T03:39:50.526Z,5.30
2019-02-11T03:42:19.275Z,5.30
2019-02-11T03:44:47.987Z,5.30
2019-02-11T03:47:16.673Z,5.30
2019-02-11T03:49:45.441Z,5.30
2019-02-11T03:52:14.147Z,5.20
2019-02-11T03:54:42.878Z,5.30
2019-02-11T03:57:11.625Z,5.30
2019-02-11T03:59:40.303Z,5.40
2019-02-11T04:02:09.005Z,5.50
2019-02-11T04:04:37.750Z,5.50
2019-02-11T04:07:06.450Z,5.50
2019-02-11T04:09:35.156Z,5.50
2019-02-11T04:12:03.950Z,5.50
2019-02-11T04:14:32.642Z,5.60
2019-02-11T04:17:01.349Z,5.60
2019-02-11T04:19:30.072Z,5.60
2019-02-11T04:22:06.825Z,5.60
2019-02-11T04:24:35.561Z,5.60
2019-02-11T04:27:04.258Z,5.60
2019-02-11T04:29:33.027Z,5.60
2019-02-11T04:32:01.805Z,5.70
2019-02-11T04:34:30.525Z,5.70
2019-02-11T04:36:59.225Z,5.70
2019-02-11T04:39:27.950Z,5.70
2019-02-11T04:41:56.789Z,5.70
2019-02-11T04:44:33.823Z,5.70
2019-02-11T04:46:56.044Z,5.70
2019-02-11T04:49:24.751Z,5.70
2019-02-11T04:51:53.442Z,5.60
2019-02-11T04:54:22.163Z,5.70
2019-02-11T04:56:51.020Z,5.70
2019-02-11T04:59:19.736Z,5.70
2019-02-11T05:01:48.472Z,5.60
2019-02-11T05:04:17.217Z,5.70
2019-02-11T05:06:45.991Z,5.70
2019-02-11T05:09:14.714Z,5.70
2019-02-11T05:11:43.404Z,5.60
2019-02-11T05:14:12.132Z,5.60
2019-02-11T05:16:40.938Z,5.60
2019-02-11T05:19:09.634Z,5.60
2019-02-11T05:21:38.337Z,5.50
2019-02-11T05:24:07.092Z,5.50
2019-02-11T05:26:35.794Z,5.50
2019-02-11T05:29:04.614Z,5.40
2019-02-11T05:31:33.435Z,5.40
2019-02-11T05:34:02.159Z,5.30
2019-02-11T05:36:30.875Z,5.30
2019-02-11T05:38:59.688Z,5.30
2019-02-11T05:41:28.379Z,5.20
2019-02-11T05:43:57.084Z,5.20
2019-02-11T05:46:25.803Z,5.20
2019-02-11T05:48:54.490Z,5.20
2019-02-11T05:51:23.199Z,5.20
2019-02-11T05:53:51.925Z,5.20
2019-02-11T05:56:20.630Z,5.20
2019-02-11T05:58:49.377Z,5.30
2019-02-11T06:01:19.350Z,5.30
2019-02-11T06:03:48.055Z,5.30
2019-02-11T06:06:16.785Z,5.30
2019-02-11T06:08:45.560Z,5.30
2019-02-11T06:11:14.270Z,5.40
2019-02-11T06:13:42.996Z,5.40
2019-02-11T06:16:11.738Z,5.40
2019-02-11T06:18:40.438Z,5.40
2019-02-11T06:21:09.143Z,5.40
2019-02-11T06:23:37.855Z,5.40
2019-02-11T06:26:06.586Z,5.40
2019-02-11T06:28:35.358Z,5.40
2019-02-11T06:31:04.085Z,5.50
2019-02-11T06:33:32.785Z,5.40
2019-02-11T06:36:01.594Z,5.40
2019-02-11T06:38:30.290Z,5.40
2019-02-11T06:40:59.043Z,5.40
2019-02-11T06:43:27.838Z,5.40
2019-02-11T06:45:56.541Z,5.40
2019-02-11T06:48:25.347Z,5.40
2019-02-11T06:50:54.323Z,5.40
2019-02-11T06:53:23.059Z,5.40
2019-02-11T06:55:51.837Z,5.40
2019-02-11T06:58:20.562Z,5.40
2019-02-11T07:00:49.294Z,5.30
2019-02-11T07:03:18.067Z,5.30
2019-02-11T07:05:48.586Z,5.30
2019-02-11T07:08:17.322Z,5.30
2019-02-11T07:10:46.030Z,5.30
2019-02-11T07:13:14.747Z,5.30
2019-02-11T07:15:43.458Z,5.30
2019-02-11T07:18:12.157Z,5.30
2019-02-11T07:20:40.873Z,5.30
2019-02-11T07:23:09.573Z,5.20
2019-02-11T07:25:38.262Z,5.20
2019-02-11T07:28:06.974Z,5.20
2019-02-11T07:30:35.683Z,5.20
2019-02-11T07:33:04.389Z,5.20
2019-02-11T07:35:33.151Z,5.20
2019-02-11T07:38:01.914Z,5.30
2019-02-11T07:40:30.634Z,5.30
2019-02-11T07:43:18.414Z,5.30
2019-02-11T07:45:56.894Z,5.20
2019-02-11T07:48:25.652Z,5.20
2019-02-11T07:50:54.448Z,5.20
2019-02-11T07:53:23.154Z,5.20
2019-02-11T07:55:51.919Z,5.20
2019-02-11T07:58:20.616Z,5.20
2019-02-11T08:00:49.335Z,5.30
2019-02-11T08:03:18.100Z,5.30
2019-02-11T08:05:46.811Z,5.40
2019-02-11T08:08:16.914Z,5.50
2019-02-11T08:10:45.730Z,5.50
2019-02-11T08:13:14.522Z,5.50
2019-02-11T08:15:43.260Z,5.60
2019-02-11T08:18:11.991Z,5.60
2019-02-11T08:20:40.709Z,5.60
2019-02-11T08:23:13.065Z,5.60
2019-02-11T08:25:40.047Z,5.60
2019-02-11T08:28:08.768Z,5.70
2019-02-11T08:30:37.513Z,5.80
2019-02-11T08:33:06.364Z,5.80
2019-02-11T08:35:35.057Z,5.90
2019-02-11T08:38:03.960Z,5.90
2019-02-11T08:40:32.674Z,6.00
2019-02-11T08:43:01.365Z,6.00
2019-02-11T08:45:30.088Z,6.00
2019-02-11T08:47:58.795Z,6.00
2019-02-11T08:50:27.568Z,6.10
2019-02-11T08:52:56.390Z,6.10
2019-02-11T08:55:25.194Z,6.10
2019-02-11T08:57:53.909Z,6.20
2019-02-11T09:00:22.629Z,6.30
2019-02-11T09:02:51.310Z,6.40
2019-02-11T09:05:20.863Z,6.40
2019-02-11T09:07:49.579Z,6.50
2019-02-11T09:10:18.271Z,6.50
2019-02-11T09:12:47.030Z,6.60
2019-02-11T09:15:15.847Z,6.60
2019-02-11T09:17:44.546Z,6.60
2019-02-11T09:20:13.408Z,6.60
2019-02-11T09:22:42.134Z,6.70
2019-02-11T09:25:10.929Z,6.70
2019-02-11T09:27:39.642Z,6.80
2019-02-11T09:30:11.567Z,6.80
2019-02-11T09:32:40.278Z,6.90
2019-02-11T09:35:08.990Z,6.90
2019-02-11T09:37:37.696Z,6.90
2019-02-11T09:40:07.847Z,6.80
2019-02-11T09:42:36.584Z,6.80
2019-02-11T09:45:07.640Z,6.80
2019-02-11T09:47:36.431Z,6.90
2019-02-11T09:50:40.186Z,7.00
2019-02-11T09:53:08.925Z,7.10
2019-02-11T09:55:37.630Z,7.30
2019-02-11T09:58:06.503Z,7.30
2019-02-11T10:00:35.193Z,7.30
2019-02-11T10:03:03.893Z,7.30
2019-02-11T10:05:32.626Z,7.20
2019-02-11T10:08:01.427Z,7.30
2019-02-11T10:10:30.155Z,7.30
2019-02-11T10:12:58.946Z,7.30
2019-02-11T10:15:27.713Z,7.40
2019-02-11T10:17:56.445Z,7.40
2019-02-11T10:20:25.238Z,7.40
2019-02-11T10:22:53.939Z,7.50
2019-02-11T10:25:24.092Z,7.50
2019-02-11T10:27:54.434Z,7.60
2019-02-11T10:30:23.133Z,7.60
2019-02-11T10:32:51.867Z,7.60
2019-02-11T10:35:23.689Z,7.70
2019-02-11T10:37:52.390Z,7.80
2019-02-11T10:40:21.139Z,7.70
2019-02-11T10:42:49.861Z,7.70
2019-02-11T10:45:18.573Z,7.70
2019-02-11T10:47:47.276Z,7.60
2019-02-11T10:50:16.268Z,7.50
2019-02-11T10:52:45.026Z,7.40
2019-02-11T10:55:17.379Z,7.40
2019-02-11T10:57:46.109Z,7.30
2019-02-11T11:00:17.342Z,7.20
2019-02-11T11:02:46.041Z,7.30
2019-02-11T11:05:15.218Z,7.40
2019-02-11T11:07:44.742Z,7.50
2019-02-11T11:10:22.853Z,7.60
2019-02-11T11:12:51.566Z,7.70
2019-02-11T11:15:20.340Z,7.70
2019-02-11T11:17:49.139Z,7.60
2019-02-11T11:20:18.098Z,7.60
2019-02-11T11:22:46.809Z,7.50
2019-02-11T11:25:16.378Z,7.40
2019-02-11T11:27:45.146Z,7.40
2019-02-11T11:30:13.962Z,7.50
2019-02-11T11:32:43.179Z,7.50
2019-02-11T11:35:12.065Z,7.50
2019-02-11T11:37:40.762Z,7.60
2019-02-11T11:40:11.162Z,7.70
2019-02-11T11:42:39.952Z,8.00
2019-02-11T11:45:11.194Z,8.30
2019-02-11T11:47:39.942Z,8.50
2019-02-11T11:50:09.286Z,9.00
2019-02-11T11:52:38.014Z,9.40
2019-02-11T11:55:08.995Z,9.70
2019-02-11T11:57:37.702Z,9.90
2019-02-11T12:00:14.556Z,10.10
2019-02-11T12:02:59.514Z,10.50
2019-02-11T12:05:13.764Z,11.00
2019-02-11T12:07:42.515Z,11.10
2019-02-11T12:10:11.306Z,10.90
2019-02-11T12:12:40.030Z,10.70
2019-02-11T12:15:08.887Z,10.90
2019-02-11T12:17:37.718Z,11.10
2019-02-11T12:20:07.774Z,11.00
2019-02-11T12:22:36.631Z,11.00
2019-02-11T12:25:06.691Z,10.80
2019-02-11T12:27:35.458Z,10.70
2019-02-11T12:30:04.555Z,10.30
2019-02-11T12:32:33.264Z,10.50
2019-02-11T12:35:01.975Z,10.80
2019-02-11T12:37:30.963Z,10.80
2019-02-11T12:39:59.677Z,10.50
2019-02-11T12:42:28.401Z,10.50
2019-02-11T12:44:57.228Z,10.50
2019-02-11T12:47:27.140Z,10.70
2019-02-11T12:49:55.943Z,10.60
2019-02-11T12:52:26.768Z,10.50
2019-02-11T12:54:55.480Z,10.50
2019-02-11T12:57:24.254Z,10.60
2019-02-11T12:59:53.016Z,10.50
2019-02-11T13:02:21.798Z,10.40
2019-02-11T13:04:50.614Z,10.70
2019-02-11T13:07:19.421Z,10.80
2019-02-11T13:09:48.539Z,11.00
2019-02-11T13:12:17.283Z,10.80
2019-02-11T13:14:47.352Z,10.80
2019-02-11T13:17:32.733Z,11.10
2019-02-11T13:19:46.598Z,11.20
2019-02-11T13:22:15.525Z,10.90
2019-02-11T13:24:44.366Z,10.90
2019-02-11T13:27:13.094Z,11.00
2019-02-11T13:29:41.829Z,10.50
2019-02-11T13:32:10.980Z,10.90
2019-02-11T13:34:39.791Z,11.10
2019-02-11T13:37:09.528Z,11.50
2019-02-11T13:39:38.311Z,11.40
2019-02-11T13:42:07.083Z,11.30
2019-02-11T13:44:35.814Z,11.20
2019-02-11T13:47:05.865Z,11.00
2019-02-11T13:49:34.585Z,11.20
2019-02-11T13:52:03.334Z,11.40
2019-02-11T13:54:32.082Z,11.60
2019-02-11T13:57:00.974Z,11.50
2019-02-11T13:59:29.937Z,11.50
2019-02-11T14:01:58.873Z,11.40
2019-02-11T14:04:30.948Z,11.50
2019-02-11T14:07:00.018Z,11.50
2019-02-11T14:09:30.417Z,11.50
2019-02-11T14:11:59.549Z,11.00
2019-02-11T14:14:29.454Z,11.10
2019-02-11T14:16:58.266Z,11.10
2019-02-11T14:19:29.204Z,11.10
2019-02-11T14:21:57.925Z,11.00
2019-02-11T14:24:26.875Z,11.10
2019-02-11T14:26:55.609Z,11.20
2019-02-11T14:29:24.491Z,11.40
2019-02-11T14:31:53.348Z,11.40
2019-02-11T14:34:22.211Z,11.30
2019-02-11T14:36:51.032Z,11.50
2019-02-11T14:39:19.933Z,11.50
2019-02-11T14:41:49.105Z,11.30
2019-02-11T14:44:18.204Z,11.30
2019-02-11T14:46:47.062Z,11.60
2019-02-11T14:49:16.349Z,11.40
2019-02-11T14:51:46.679Z,11.40
2019-02-11T14:54:15.421Z,11.00
2019-02-11T14:56:44.190Z,11.20
2019-02-11T14:59:12.911Z,11.20
2019-02-11T15:01:41.726Z,11.20
2019-02-11T15:04:11.743Z,11.50
2019-02-11T15:06:40.495Z,11.40
2019-02-11T15:09:09.346Z,11.50
2019-02-11T15:11:38.071Z,11.10
2019-02-11T15:14:06.888Z,11.10
2019-02-11T15:16:35.621Z,11.10
2019-02-11T15:19:04.361Z,10.70
2019-02-11T15:21:33.125Z,10.50
2019-02-11T15:24:03.592Z,10.50
2019-02-11T15:26:32.311Z,10.50
2019-02-11T15:29:01.460Z,10.50
2019-02-11T15:31:30.699Z,10.30
2019-02-11T15:34:01.094Z,10.10
2019-02-11T15:36:34.051Z,9.90
2019-02-11T15:39:05.057Z,9.90
2019-02-11T15:41:35.181Z,10.10
2019-02-11T15:44:03.926Z,10.00
2019-02-11T15:46:32.939Z,9.90
2019-02-11T15:49:01.759Z,9.70
2019-02-11T15:51:30.524Z,9.80
2019-02-11T15:53:59.263Z,9.70
2019-02-11T15:56:28.066Z,9.60
2019-02-11T15:58:57.067Z,9.50
2019-02-11T16:01:27.116Z,9.40
2019-02-11T16:03:56.214Z,9.50
2019-02-11T16:06:25.060Z,9.40
2019-02-11T16:08:53.796Z,9.30
2019-02-11T16:11:22.582Z,9.10
2019-02-11T16:13:51.523Z,9.00
2019-02-11T16:16:20.343Z,9.00
2019-02-11T16:18:52.100Z,8.80
2019-02-11T16:21:21.122Z,8.60
2019-02-11T16:23:49.985Z,8.50
2019-02-11T16:26:18.770Z,8.50
2019-02-11T16:28:47.632Z,8.40
2019-02-11T16:31:16.405Z,8.30
2019-02-11T16:33:45.140Z,8.20
2019-02-11T16:36:13.910Z,8.10
2019-02-11T16:38:42.834Z,8.10
2019-02-11T16:41:11.737Z,7.90
2019-02-11T16:43:42.579Z,7.90
2019-02-11T16:46:11.414Z,7.80
2019-02-11T16:48:40.298Z,7.80
2019-02-11T16:51:09.086Z,7.70
2019-02-11T16:53:38.550Z,7.70
2019-02-11T16:56:07.381Z,7.70
2019-02-11T16:58:36.096Z,7.70
2019-02-11T17:01:05.368Z,7.60
2019-02-11T17:03:34.264Z,7.60
2019-02-11T17:06:03.259Z,7.50
2019-02-11T17:08:32.045Z,7.50
2019-02-11T17:11:00.862Z,7.40
2019-02-11T17:13:29.743Z,7.30
2019-02-11T17:15:58.581Z,7.20
2019-02-11T17:18:27.495Z,7.20
2019-02-11T17:20:57.504Z,7.20
2019-02-11T17:23:27.469Z,7.10
2019-02-11T17:25:58.421Z,7.00
2019-02-11T17:28:27.275Z,6.90
2019-02-11T17:30:56.346Z,6.80
2019-02-11T17:33:25.382Z,6.80
2019-02-11T17:35:55.258Z,6.80
2019-02-11T17:38:24.004Z,6.80
2019-02-11T17:40:52.798Z,6.70
2019-02-11T17:43:24.011Z,6.70
2019-02-11T17:45:52.964Z,6.70
2019-02-11T17:48:22.586Z,6.70
2019-02-11T17:50:51.439Z,6.60
2019-02-11T17:53:20.829Z,6.60
2019-02-11T17:55:49.691Z,6.50
2019-02-11T17:58:18.519Z,6.50
2019-02-11T18:00:52.020Z,6.40
2019-02-11T18:03:20.940Z,6.30
2019-02-11T18:05:49.789Z,6.30
2019-02-11T18:08:18.559Z,6.20
2019-02-11T18:10:48.623Z,6.20
2019-02-11T18:13:17.424Z,6.20
2019-02-11T18:15:46.222Z,6.20
2019-02-11T18:18:15.098Z,6.20
2019-02-11T18:20:45.335Z,6.10
2019-02-11T18:23:14.130Z,6.10
2019-02-11T18:25:42.874Z,6.10
2019-02-11T18:28:11.576Z,6.10
2019-02-11T18:30:40.369Z,6.10
2019-02-11T18:33:09.110Z,6.10
2019-02-11T18:35:37.851Z,6.10
2019-02-11T18:38:06.650Z,6.10
2019-02-11T18:40:35.365Z,6.10
2019-02-11T18:43:04.110Z,6.00
2019-02-11T18:45:33.798Z,5.90
2019-02-11T18:48:02.519Z,5.90
2019-02-11T18:50:31.234Z,5.90
2019-02-11T18:53:00.250Z,5.90
2019-02-11T18:55:29.582Z,5.90
2019-02-11T18:58:01.797Z,5.90
2019-02-11T19:00:30.550Z,5.90
2019-02-11T19:03:00.235Z,5.90
2019-02-11T19:05:29.142Z,5.90
2019-02-11T19:07:58.018Z,5.80
2019-02-11T19:10:26.899Z,5.90
2019-02-11T19:12:55.730Z,5.80
2019-02-11T19:15:25.505Z,5.80
2019-02-11T19:17:54.310Z,5.80
2019-02-11T19:20:24.810Z,5.80
2019-02-11T19:22:53.840Z,5.70
2019-02-11T19:25:24.869Z,5.70
2019-02-11T19:27:54.051Z,5.70
2019-02-11T19:30:26.077Z,5.60
2019-02-11T19:32:54.878Z,5.60
2019-02-11T19:35:23.637Z,5.60
2019-02-11T19:37:52.413Z,5.60
2019-02-11T19:40:21.174Z,5.60
2019-02-11T19:42:49.952Z,5.60
2019-02-11T19:45:19.540Z,5.60
2019-02-11T19:47:48.463Z,5.60
2019-02-11T19:50:18.854Z,5.50
2019-02-11T19:52:48.900Z,5.50
2019-02-11T19:55:17.708Z,5.50
2019-02-11T19:57:46.534Z,5.40
2019-02-11T20:00:18.574Z,5.40
2019-02-11T20:02:47.521Z,5.40
2019-02-11T20:05:16.454Z,5.40
2019-02-11T20:07:46.979Z,5.40
2019-02-11T20:10:15.962Z,5.40
2019-02-11T20:12:44.746Z,5.40
2019-02-11T20:15:15.567Z,5.40
2019-02-11T20:17:44.431Z,5.30
2019-02-11T20:20:15.049Z,5.30
2019-02-11T20:22:43.966Z,5.30
2019-02-11T20:25:12.719Z,5.20
2019-02-11T20:27:44.514Z,5.20
2019-02-11T20:30:15.201Z,5.20
2019-02-11T20:32:44.197Z,5.20
2019-02-11T20:35:12.985Z,5.20
2019-02-11T20:37:41.928Z,5.10
2019-02-11T20:40:13.207Z,5.10
2019-02-11T20:42:42.167Z,5.10
2019-02-11T20:45:13.898Z,5.10
2019-02-11T20:47:42.797Z,5.00
2019-02-11T20:50:12.253Z,5.00
2019-02-11T20:52:41.271Z,5.00
2019-02-11T20:55:11.139Z,5.00
2019-02-11T21:00:38.704Z,5.00
2019-02-11T21:03:08.757Z,4.90
2019-02-11T21:05:45.860Z,4.90
2019-02-11T21:08:14.668Z,4.90
2019-02-11T21:10:43.676Z,4.80
2019-02-11T21:13:14.890Z,4.80
2019-02-11T21:15:44.378Z,4.80
2019-02-11T21:18:13.172Z,4.90
2019-02-11T21:20:42.024Z,4.80
2019-02-11T21:23:11.028Z,4.80
2019-02-11T21:25:41.669Z,4.90
2019-02-11T21:28:10.451Z,4.90
2019-02-11T21:30:39.173Z,4.80
2019-02-11T21:33:07.908Z,4.80
2019-02-11T21:35:36.688Z,4.80
2019-02-11T21:38:05.406Z,4.80
2019-02-11T21:40:34.119Z,4.80
2019-02-11T21:43:02.955Z,4.70
2019-02-11T21:45:31.795Z,4.80
2019-02-11T21:48:00.520Z,4.80
2019-02-11T21:50:30.440Z,4.80
2019-02-11T21:52:59.319Z,4.90
2019-02-11T21:55:28.090Z,4.80
2019-02-11T21:57:56.842Z,4.80
2019-02-11T22:00:25.641Z,4.80
2019-02-11T22:02:54.362Z,4.80
2019-02-11T22:05:23.175Z,4.70
2019-02-11T22:07:51.968Z,4.70
2019-02-11T22:10:20.765Z,4.70
2019-02-11T22:12:49.465Z,4.70
2019-02-11T22:15:18.235Z,4.60
2019-02-11T22:17:47.111Z,4.60
2019-02-11T22:20:17.108Z,4.60
2019-02-11T22:22:45.935Z,4.60
2019-02-11T22:25:14.807Z,4.60
2019-02-11T22:27:43.534Z,4.60
2019-02-11T22:30:14.530Z,4.60
2019-02-11T22:32:43.311Z,4.60
2019-02-11T22:35:12.055Z,4.50
2019-02-11T22:37:40.909Z,4.60
2019-02-11T22:40:10.277Z,4.70
2019-02-11T22:42:39.026Z,4.70
2019-02-11T22:45:09.296Z,4.70
2019-02-11T22:47:38.025Z,4.70
2019-02-11T22:50:07.566Z,4.60
2019-02-11T22:52:37.575Z,4.60
2019-02-11T22:55:09.273Z,4.60
2019-02-11T22:57:38.077Z,4.60
2019-02-11T23:00:23.082Z,4.60
2019-02-11T23:02:51.824Z,4.50
2019-02-11T23:05:23.546Z,4.50
2019-02-11T23:07:52.326Z,4.50
2019-02-11T23:10:21.234Z,4.50
2019-02-11T23:12:50.010Z,4.50
2019-02-11T23:15:18.894Z,4.50
2019-02-11T23:17:47.729Z,4.40
2019-02-11T23:20:16.642Z,4.50
2019-02-11T23:22:45.483Z,4.50
2019-02-11T23:25:14.370Z,4.40
2019-02-11T23:27:43.232Z,4.50
2019-02-11T23:30:13.471Z,4.40
2019-02-11T23:32:42.654Z,4.40
2019-02-11T23:35:11.466Z,4.40
2019-02-11T23:37:40.391Z,4.40
2019-02-11T23:40:09.242Z,4.40
2019-02-11T23:42:38.322Z,4.40
2019-02-11T23:45:08.196Z,4.30
2019-02-11T23:47:36.907Z,4.30
2019-02-11T23:50:05.926Z,4.30
2019-02-11T23:52:34.695Z,4.40
2019-02-11T23:55:03.444Z,4.30
2019-02-11T23:57:32.311Z,4.30
